createdAt,value
2017-02-18T00:00:23.035Z,0
2017-02-18T00:01:33.752Z,0
2017-02-18T00:02:44.458Z,0
2017-02-18T00:03:55.161Z,0
2017-02-18T00:05:05.867Z,0
2017-02-18T00:06:16.176Z,0
2017-02-18T00:07:26.920Z,0
2017-02-18T00:08:37.613Z,0
2017-02-18T00:09:48.374Z,0
2017-02-18T00:10:59.076Z,0
2017-02-18T00:12:09.779Z,0
2017-02-18T00:13:20.474Z,0
2017-02-18T00:14:31.197Z,0
2017-02-18T00:15:41.507Z,0
2017-02-18T00:16:52.221Z,0
2017-02-18T00:18:02.916Z,0
2017-02-18T00:19:13.618Z,0
2017-02-18T00:20:24.328Z,0
2017-02-18T00:21:35.047Z,0
2017-02-18T00:22:45.758Z,0
2017-02-18T00:23:56.463Z,0
2017-02-18T00:25:07.174Z,0
2017-02-18T00:26:17.494Z,0
2017-02-18T00:27:27.794Z,0
2017-02-18T00:28:38.485Z,0
2017-02-18T00:29:49.213Z,0
2017-02-18T00:30:59.926Z,0
2017-02-18T00:32:10.695Z,0
2017-02-18T00:33:21.001Z,0
2017-02-18T00:34:31.693Z,0
2017-02-18T00:35:42.394Z,0
2017-02-18T00:36:53.086Z,0
2017-02-18T00:38:03.793Z,0
2017-02-18T00:39:14.493Z,0
2017-02-18T00:40:24.786Z,0
2017-02-18T00:41:35.494Z,0
2017-02-18T00:42:46.206Z,0
2017-02-18T00:43:56.908Z,0
2017-02-18T00:45:07.626Z,0
2017-02-18T00:46:17.527Z,0
2017-02-18T00:47:27.817Z,0
2017-02-18T00:48:38.506Z,0
2017-02-18T00:49:49.197Z,0
2017-02-18T00:50:59.909Z,0
2017-02-18T00:52:10.209Z,0
2017-02-18T00:53:20.508Z,0
2017-02-18T00:54:31.207Z,0
2017-02-18T00:55:41.920Z,0
2017-02-18T00:56:52.619Z,0
2017-02-18T00:58:03.377Z,0
2017-02-18T00:59:14.093Z,0
2017-02-18T01:00:24.413Z,0
2017-02-18T01:01:35.129Z,0
2017-02-18T01:02:45.835Z,0
2017-02-18T01:03:56.546Z,0
2017-02-18T01:05:07.254Z,0
2017-02-18T01:06:17.938Z,0
2017-02-18T01:07:28.671Z,0
2017-02-18T01:08:39.372Z,0
2017-02-18T01:09:50.078Z,0
2017-02-18T01:11:00.797Z,0
2017-02-18T01:12:11.511Z,0
2017-02-18T01:13:21.810Z,0
2017-02-18T01:14:32.105Z,0
2017-02-18T01:15:42.819Z,0
2017-02-18T01:16:53.535Z,0
2017-02-18T01:18:04.260Z,0
2017-02-18T01:19:14.974Z,0
2017-02-18T01:20:25.661Z,0
2017-02-18T01:21:35.972Z,0
2017-02-18T01:22:46.286Z,0
2017-02-18T01:23:56.587Z,0
2017-02-18T01:25:07.291Z,0
2017-02-18T01:26:17.190Z,0
2017-02-18T01:27:27.907Z,0
2017-02-18T01:28:38.206Z,0
2017-02-18T01:29:48.917Z,0
2017-02-18T01:30:59.617Z,0
2017-02-18T01:32:10.348Z,0
2017-02-18T01:33:20.669Z,0
2017-02-18T01:34:31.369Z,0
2017-02-18T01:35:42.128Z,0
2017-02-18T01:36:52.823Z,0
2017-02-18T01:38:03.581Z,0
2017-02-18T01:39:14.289Z,0
2017-02-18T01:40:24.993Z,0
2017-02-18T01:41:35.314Z,0
2017-02-18T01:42:46.035Z,0
2017-02-18T01:43:56.741Z,0
2017-02-18T01:45:07.444Z,0
2017-02-18T01:46:17.771Z,0
2017-02-18T01:47:28.477Z,0
2017-02-18T01:48:39.171Z,0
2017-02-18T01:49:49.482Z,0
2017-02-18T01:51:00.181Z,0
2017-02-18T01:52:10.490Z,0
2017-02-18T01:53:21.209Z,0
2017-02-18T01:54:31.919Z,0
2017-02-18T01:55:42.635Z,0
2017-02-18T01:56:53.336Z,0
2017-02-18T01:58:04.048Z,0
2017-02-18T01:59:14.749Z,0
2017-02-18T02:00:25.460Z,0
2017-02-18T02:01:36.217Z,0
2017-02-18T02:02:46.907Z,0
2017-02-18T02:03:57.608Z,0
2017-02-18T02:05:07.586Z,0
2017-02-18T02:06:17.901Z,0
2017-02-18T02:07:28.601Z,0
2017-02-18T02:08:38.895Z,0
2017-02-18T02:09:49.607Z,0
2017-02-18T02:11:00.317Z,0
2017-02-18T02:12:10.623Z,0
2017-02-18T02:13:21.337Z,0
2017-02-18T02:14:32.037Z,0
2017-02-18T02:15:42.738Z,0
2017-02-18T02:16:53.503Z,0
2017-02-18T02:18:04.219Z,0
2017-02-18T02:19:14.928Z,0
2017-02-18T02:20:25.636Z,0
2017-02-18T02:21:36.344Z,0
2017-02-18T02:22:47.050Z,0
2017-02-18T02:23:57.734Z,0
2017-02-18T02:25:08.438Z,0
2017-02-18T02:26:18.735Z,0
2017-02-18T02:27:29.038Z,0
2017-02-18T02:28:39.735Z,0
2017-02-18T02:29:49.667Z,0
2017-02-18T02:31:00.352Z,0
2017-02-18T02:32:10.673Z,0
2017-02-18T02:33:21.376Z,0
2017-02-18T02:34:32.091Z,0
2017-02-18T02:35:42.787Z,0
2017-02-18T02:36:53.488Z,0
2017-02-18T02:38:03.779Z,0
2017-02-18T02:39:14.108Z,0
2017-02-18T02:40:24.809Z,0
2017-02-18T02:41:35.502Z,0
2017-02-18T02:42:46.211Z,0
2017-02-18T02:43:56.901Z,0
2017-02-18T02:45:07.214Z,0
2017-02-18T02:46:17.519Z,0
2017-02-18T02:47:28.215Z,0
2017-02-18T02:48:38.910Z,0
2017-02-18T02:49:49.668Z,0
2017-02-18T02:51:00.358Z,0
2017-02-18T02:52:10.663Z,0
2017-02-18T02:53:20.968Z,0
2017-02-18T02:54:31.721Z,0
2017-02-18T02:55:42.420Z,0
2017-02-18T02:56:53.128Z,0
2017-02-18T02:58:03.447Z,0
2017-02-18T02:59:14.145Z,0
2017-02-18T03:00:24.074Z,0
2017-02-18T03:01:34.777Z,0
2017-02-18T03:02:45.079Z,0
2017-02-18T03:03:55.792Z,0
2017-02-18T03:05:06.501Z,0
2017-02-18T03:06:17.193Z,0
2017-02-18T03:07:27.909Z,0
2017-02-18T03:08:38.617Z,0
2017-02-18T03:09:49.323Z,0
2017-02-18T03:11:00.032Z,0
2017-02-18T03:12:10.738Z,0
2017-02-18T03:13:21.593Z,0
2017-02-18T03:14:32.295Z,0
2017-02-18T03:15:43.006Z,0
2017-02-18T03:16:53.297Z,0
2017-02-18T03:18:03.999Z,0
2017-02-18T03:19:18.060Z,0
2017-02-18T03:20:28.767Z,0
2017-02-18T03:21:39.465Z,0
2017-02-18T03:22:50.168Z,0
2017-02-18T03:24:00.854Z,0
2017-02-18T03:25:11.570Z,0
2017-02-18T03:26:22.266Z,0
2017-02-18T03:27:32.957Z,0
2017-02-18T03:28:43.673Z,0
2017-02-18T03:29:54.368Z,0
2017-02-18T03:31:05.082Z,0
2017-02-18T03:32:15.000Z,0
2017-02-18T03:33:25.696Z,0
2017-02-18T03:34:36.398Z,0
2017-02-18T03:35:47.110Z,0
2017-02-18T03:36:57.800Z,0
2017-02-18T03:38:08.494Z,0
2017-02-18T03:39:19.215Z,0
2017-02-18T03:40:29.918Z,0
2017-02-18T03:41:40.613Z,0
2017-02-18T03:42:51.316Z,0
2017-02-18T03:44:02.036Z,0
2017-02-18T03:45:12.726Z,0
2017-02-18T03:46:23.060Z,0
2017-02-18T03:47:33.384Z,0
2017-02-18T03:48:44.073Z,0
2017-02-18T03:49:54.789Z,0
2017-02-18T03:51:05.514Z,0
2017-02-18T03:52:15.821Z,0
2017-02-18T03:53:26.521Z,0
2017-02-18T03:54:37.234Z,0
2017-02-18T03:55:47.939Z,0
2017-02-18T03:56:58.662Z,0
2017-02-18T03:58:09.373Z,0
2017-02-18T03:59:20.069Z,0
2017-02-18T04:00:30.780Z,0
2017-02-18T04:01:41.486Z,0
2017-02-18T04:02:52.190Z,0
2017-02-18T04:04:02.905Z,0
2017-02-18T04:05:12.829Z,0
2017-02-18T04:06:23.524Z,0
2017-02-18T04:07:34.236Z,0
2017-02-18T04:08:44.938Z,0
2017-02-18T04:09:55.247Z,0
2017-02-18T04:11:05.958Z,0
2017-02-18T04:12:16.655Z,0
2017-02-18T04:13:27.360Z,0
2017-02-18T04:14:37.684Z,0
2017-02-18T04:15:48.387Z,0
2017-02-18T04:16:59.103Z,0
2017-02-18T04:18:09.018Z,0
2017-02-18T04:19:19.721Z,0
2017-02-18T04:20:30.439Z,0
2017-02-18T04:21:41.163Z,0
2017-02-18T04:22:51.859Z,0
2017-02-18T04:24:02.557Z,0
2017-02-18T04:25:12.859Z,0
2017-02-18T04:26:23.161Z,0
2017-02-18T04:27:33.472Z,0
2017-02-18T04:28:43.772Z,0
2017-02-18T04:29:54.474Z,0
2017-02-18T04:31:05.178Z,0
2017-02-18T04:32:15.881Z,0
2017-02-18T04:33:26.585Z,0
2017-02-18T04:34:37.295Z,0
2017-02-18T04:35:47.999Z,0
2017-02-18T04:36:58.693Z,0
2017-02-18T04:38:09.008Z,0
2017-02-18T04:39:19.313Z,0
2017-02-18T04:40:30.060Z,0
2017-02-18T04:41:40.779Z,0
2017-02-18T04:42:51.476Z,0
2017-02-18T04:44:02.171Z,0
2017-02-18T04:45:12.877Z,0
2017-02-18T04:46:23.184Z,0
2017-02-18T04:47:33.087Z,0
2017-02-18T04:48:43.806Z,0
2017-02-18T04:49:54.511Z,0
2017-02-18T04:51:05.223Z,0
2017-02-18T04:52:15.125Z,0
2017-02-18T04:53:25.820Z,0
2017-02-18T04:54:36.126Z,0
2017-02-18T04:55:46.893Z,0
2017-02-18T04:56:57.197Z,0
2017-02-18T04:58:07.897Z,0
2017-02-18T04:59:18.192Z,0
2017-02-18T05:00:28.893Z,0
2017-02-18T05:01:39.639Z,0
2017-02-18T05:02:50.350Z,0
2017-02-18T05:04:01.036Z,0
2017-02-18T05:05:11.739Z,0
2017-02-18T05:06:21.665Z,0
2017-02-18T05:07:32.364Z,0
2017-02-18T05:08:43.064Z,0
2017-02-18T05:09:53.754Z,0
2017-02-18T05:11:04.451Z,0
2017-02-18T05:12:14.755Z,0
2017-02-18T05:13:25.511Z,0
2017-02-18T05:14:36.201Z,0
2017-02-18T05:15:46.898Z,0
2017-02-18T05:16:57.578Z,0
2017-02-18T05:18:08.273Z,0
2017-02-18T05:19:18.985Z,0
2017-02-18T05:20:29.690Z,0
2017-02-18T05:21:40.400Z,0
2017-02-18T05:22:51.109Z,0
2017-02-18T05:24:01.820Z,0
2017-02-18T05:25:12.512Z,0
2017-02-18T05:26:23.233Z,0
2017-02-18T05:27:33.550Z,0
2017-02-18T05:28:44.261Z,0
2017-02-18T05:29:54.954Z,0
2017-02-18T05:31:05.663Z,0
2017-02-18T05:32:15.967Z,0
2017-02-18T05:33:26.664Z,0
2017-02-18T05:34:37.386Z,0
2017-02-18T05:35:48.074Z,0
2017-02-18T05:36:58.789Z,0
2017-02-18T05:38:09.495Z,0
2017-02-18T05:39:19.048Z,0
2017-02-18T05:40:29.742Z,0
2017-02-18T05:41:40.436Z,0
2017-02-18T05:42:51.150Z,0
2017-02-18T05:44:01.461Z,0
2017-02-18T05:45:11.777Z,0
2017-02-18T05:46:22.077Z,0
2017-02-18T05:47:32.382Z,0
2017-02-18T05:48:43.103Z,0
2017-02-18T05:49:53.790Z,0
2017-02-18T05:51:04.103Z,0
2017-02-18T05:52:14.804Z,0
2017-02-18T05:53:25.512Z,0
2017-02-18T05:54:36.215Z,0
2017-02-18T05:55:46.898Z,0
2017-02-18T05:56:57.605Z,0
2017-02-18T05:58:08.305Z,0
2017-02-18T05:59:19.018Z,0
2017-02-18T06:00:29.723Z,0
2017-02-18T06:01:40.431Z,0
2017-02-18T06:02:50.716Z,0
2017-02-18T06:04:01.013Z,0
2017-02-18T06:05:11.708Z,0
2017-02-18T06:06:22.013Z,0
2017-02-18T06:07:32.719Z,0
2017-02-18T06:08:43.419Z,0
2017-02-18T06:09:53.712Z,0
2017-02-18T06:11:04.395Z,0
2017-02-18T06:12:15.098Z,0
2017-02-18T06:13:25.798Z,0
2017-02-18T06:14:36.496Z,0
2017-02-18T06:15:47.203Z,0
2017-02-18T06:16:57.908Z,0
2017-02-18T06:18:08.200Z,0
2017-02-18T06:19:18.128Z,0
2017-02-18T06:20:28.818Z,0
2017-02-18T06:21:39.536Z,0
2017-02-18T06:22:50.228Z,0
2017-02-18T06:24:00.930Z,0
2017-02-18T06:25:11.648Z,0
2017-02-18T06:26:22.346Z,0
2017-02-18T06:27:33.043Z,0
2017-02-18T06:28:43.775Z,0
2017-02-18T06:29:54.491Z,0
2017-02-18T06:31:05.198Z,0
2017-02-18T06:32:15.108Z,0
2017-02-18T06:33:25.809Z,0
2017-02-18T06:34:36.500Z,0
2017-02-18T06:35:47.197Z,0
2017-02-18T06:36:57.509Z,0
2017-02-18T06:38:08.216Z,5
2017-02-18T06:39:18.113Z,5
2017-02-18T06:40:28.843Z,5
2017-02-18T06:41:39.537Z,5
2017-02-18T06:42:50.228Z,5
2017-02-18T06:44:00.949Z,5
2017-02-18T06:45:11.782Z,5
2017-02-18T06:46:21.686Z,5
2017-02-18T06:47:32.385Z,5
2017-02-18T06:48:43.076Z,10
2017-02-18T06:49:53.780Z,10
2017-02-18T06:51:04.466Z,10
2017-02-18T06:52:15.224Z,10
2017-02-18T06:53:25.944Z,10
2017-02-18T06:54:36.645Z,15
2017-02-18T06:55:47.339Z,15
2017-02-18T06:57:10.943Z,15
2017-02-18T06:58:21.257Z,20
2017-02-18T06:59:31.947Z,20
2017-02-18T07:00:42.658Z,25
2017-02-18T07:01:53.396Z,25
2017-02-18T07:03:04.031Z,25
2017-02-18T07:04:14.747Z,30
2017-02-18T07:05:25.455Z,30
2017-02-18T07:06:36.145Z,35
2017-02-18T07:07:46.846Z,35
2017-02-18T07:08:57.275Z,35
2017-02-18T07:10:07.986Z,40
2017-02-18T07:11:18.691Z,45
2017-02-18T07:12:29.381Z,45
2017-02-18T07:13:39.687Z,50
2017-02-18T07:14:50.490Z,50
2017-02-18T07:16:01.188Z,55
2017-02-18T07:17:11.883Z,55
2017-02-18T07:18:22.587Z,55
2017-02-18T07:19:33.317Z,60
2017-02-18T07:20:44.026Z,60
2017-02-18T07:21:54.714Z,65
2017-02-18T07:23:05.030Z,70
2017-02-18T07:24:15.718Z,75
2017-02-18T07:25:26.418Z,80
2017-02-18T07:26:37.129Z,85
2017-02-18T07:27:47.825Z,90
2017-02-18T07:28:58.130Z,100
2017-02-18T07:30:08.417Z,105
2017-02-18T07:31:19.116Z,105
2017-02-18T07:32:29.819Z,105
2017-02-18T07:33:40.564Z,110
2017-02-18T07:34:51.257Z,120
2017-02-18T07:36:01.953Z,125
2017-02-18T07:37:12.279Z,130
2017-02-18T07:38:22.989Z,130
2017-02-18T07:39:33.683Z,130
2017-02-18T07:40:44.381Z,135
2017-02-18T07:41:55.095Z,140
2017-02-18T07:43:05.858Z,145
2017-02-18T07:44:16.546Z,150
2017-02-18T07:45:27.246Z,150
2017-02-18T07:46:37.960Z,155
2017-02-18T07:47:48.662Z,155
2017-02-18T07:48:59.366Z,160
2017-02-18T07:50:09.675Z,165
2017-02-18T07:51:20.379Z,165
2017-02-18T07:52:31.069Z,165
2017-02-18T07:53:41.779Z,160
2017-02-18T07:54:52.082Z,160
2017-02-18T07:56:02.777Z,160
2017-02-18T07:57:13.478Z,160
2017-02-18T07:58:24.179Z,165
2017-02-18T07:59:34.879Z,170
2017-02-18T08:00:45.590Z,170
2017-02-18T08:01:56.311Z,175
2017-02-18T08:03:07.018Z,175
2017-02-18T08:04:16.933Z,175
2017-02-18T08:05:27.241Z,180
2017-02-18T08:06:37.957Z,180
2017-02-18T08:07:49.464Z,185
2017-02-18T08:09:00.161Z,190
2017-02-18T08:10:10.858Z,195
2017-02-18T08:11:21.158Z,200
2017-02-18T08:12:31.469Z,205
2017-02-18T08:13:44.486Z,205
2017-02-18T08:14:55.197Z,210
2017-02-18T08:16:05.905Z,215
2017-02-18T08:17:16.618Z,220
2017-02-18T08:18:27.337Z,220
2017-02-18T08:19:41.415Z,220
2017-02-18T08:20:52.128Z,225
2017-02-18T08:22:02.836Z,225
2017-02-18T08:23:13.130Z,230
2017-02-18T08:24:23.847Z,230
2017-02-18T08:25:34.664Z,245
2017-02-18T08:26:44.981Z,245
2017-02-18T08:27:55.673Z,245
2017-02-18T08:29:06.377Z,245
2017-02-18T08:30:17.065Z,245
2017-02-18T08:31:27.778Z,245
2017-02-18T08:32:38.490Z,255
2017-02-18T08:33:49.200Z,260
2017-02-18T08:34:59.493Z,260
2017-02-18T08:36:09.798Z,260
2017-02-18T08:37:20.500Z,260
2017-02-18T08:38:31.190Z,260
2017-02-18T08:39:41.959Z,260
2017-02-18T08:40:52.656Z,265
2017-02-18T08:42:02.959Z,265
2017-02-18T08:43:13.692Z,265
2017-02-18T08:44:24.007Z,260
2017-02-18T08:45:34.703Z,260
2017-02-18T08:46:45.015Z,260
2017-02-18T08:47:55.744Z,255
2017-02-18T08:49:06.076Z,255
2017-02-18T08:50:16.784Z,260
2017-02-18T08:51:27.478Z,260
2017-02-18T08:52:37.812Z,260
2017-02-18T08:53:48.512Z,265
2017-02-18T08:54:59.217Z,265
2017-02-18T08:56:09.922Z,270
2017-02-18T08:57:20.653Z,270
2017-02-18T08:58:31.358Z,275
2017-02-18T08:59:42.114Z,270
2017-02-18T09:00:52.841Z,270
2017-02-18T09:02:03.532Z,270
2017-02-18T09:03:13.510Z,270
2017-02-18T09:04:23.809Z,270
2017-02-18T09:05:34.127Z,275
2017-02-18T09:06:44.857Z,285
2017-02-18T09:07:55.553Z,290
2017-02-18T09:09:05.908Z,295
2017-02-18T09:10:16.621Z,295
2017-02-18T09:11:27.314Z,295
2017-02-18T09:12:38.036Z,290
2017-02-18T09:13:48.728Z,290
2017-02-18T09:14:59.426Z,285
2017-02-18T09:16:10.149Z,280
2017-02-18T09:17:20.858Z,280
2017-02-18T09:18:31.165Z,285
2017-02-18T09:19:41.481Z,290
2017-02-18T09:20:52.196Z,290
2017-02-18T09:22:02.902Z,295
2017-02-18T09:23:12.812Z,295
2017-02-18T09:24:23.125Z,295
2017-02-18T09:25:33.830Z,300
2017-02-18T09:26:44.552Z,300
2017-02-18T09:27:55.266Z,310
2017-02-18T09:29:05.986Z,310
2017-02-18T09:30:16.743Z,320
2017-02-18T09:31:27.463Z,310
2017-02-18T09:32:38.179Z,310
2017-02-18T09:33:48.888Z,315
2017-02-18T09:34:59.594Z,330
2017-02-18T09:36:17.913Z,345
2017-02-18T09:37:28.674Z,345
2017-02-18T09:38:39.371Z,350
2017-02-18T09:39:50.071Z,350
2017-02-18T09:41:00.778Z,350
2017-02-18T09:42:11.105Z,350
2017-02-18T09:43:21.032Z,355
2017-02-18T09:44:31.751Z,350
2017-02-18T09:45:42.445Z,355
2017-02-18T09:46:53.151Z,355
2017-02-18T09:48:03.857Z,350
2017-02-18T09:49:14.576Z,345
2017-02-18T09:50:25.285Z,345
2017-02-18T09:51:35.984Z,340
2017-02-18T09:52:46.675Z,340
2017-02-18T09:53:57.378Z,345
2017-02-18T09:55:08.099Z,370
2017-02-18T09:56:18.797Z,365
2017-02-18T09:57:29.509Z,335
2017-02-18T09:58:40.218Z,335
2017-02-18T09:59:50.929Z,330
2017-02-18T10:01:01.636Z,325
2017-02-18T10:02:12.337Z,330
2017-02-18T10:03:23.056Z,340
2017-02-18T10:04:33.758Z,360
2017-02-18T10:05:44.463Z,375
2017-02-18T10:06:55.180Z,395
2017-02-18T10:08:05.880Z,370
2017-02-18T10:09:16.186Z,380
2017-02-18T10:10:26.893Z,390
2017-02-18T10:11:37.595Z,395
2017-02-18T10:12:48.302Z,395
2017-02-18T10:13:59.004Z,400
2017-02-18T10:15:09.720Z,405
2017-02-18T10:16:20.046Z,415
2017-02-18T10:17:30.753Z,420
2017-02-18T10:18:41.459Z,435
2017-02-18T10:19:52.208Z,425
2017-02-18T10:21:02.526Z,440
2017-02-18T10:22:12.830Z,445
2017-02-18T10:23:23.527Z,445
2017-02-18T10:24:34.254Z,445
2017-02-18T10:25:44.962Z,445
2017-02-18T10:26:55.275Z,450
2017-02-18T10:28:05.985Z,460
2017-02-18T10:29:16.305Z,485
2017-02-18T10:30:26.998Z,485
2017-02-18T10:31:37.720Z,485
2017-02-18T10:32:48.425Z,480
2017-02-18T10:33:59.148Z,470
2017-02-18T10:35:09.861Z,460
2017-02-18T10:36:20.190Z,460
2017-02-18T10:37:30.886Z,465
2017-02-18T10:38:41.602Z,470
2017-02-18T10:39:51.911Z,475
2017-02-18T10:41:02.633Z,480
2017-02-18T10:42:13.344Z,485
2017-02-18T10:43:24.062Z,485
2017-02-18T10:44:34.367Z,485
2017-02-18T10:45:45.084Z,480
2017-02-18T10:46:55.793Z,480
2017-02-18T10:48:06.525Z,480
2017-02-18T10:49:17.246Z,485
2017-02-18T10:50:27.977Z,490
2017-02-18T10:51:38.685Z,490
2017-02-18T10:52:49.396Z,490
2017-02-18T10:53:59.714Z,490
2017-02-18T10:55:10.432Z,495
2017-02-18T10:56:20.761Z,495
2017-02-18T10:57:31.481Z,500
2017-02-18T10:58:42.194Z,505
2017-02-18T10:59:52.916Z,510
2017-02-18T11:01:03.293Z,515
2017-02-18T11:02:13.605Z,515
2017-02-18T11:03:24.322Z,515
2017-02-18T11:04:34.652Z,520
2017-02-18T11:05:45.359Z,515
2017-02-18T11:06:56.098Z,510
2017-02-18T11:08:06.413Z,510
2017-02-18T11:09:17.120Z,515
2017-02-18T11:10:27.835Z,520
2017-02-18T11:11:38.571Z,520
2017-02-18T11:12:49.265Z,525
2017-02-18T11:13:59.962Z,535
2017-02-18T11:15:10.282Z,535
2017-02-18T11:16:20.603Z,530
2017-02-18T11:17:31.312Z,520
2017-02-18T11:18:42.027Z,505
2017-02-18T11:19:52.733Z,490
2017-02-18T11:21:03.440Z,480
2017-02-18T11:22:13.355Z,470
2017-02-18T11:23:23.284Z,470
2017-02-18T11:24:33.990Z,480
2017-02-18T11:25:44.288Z,490
2017-02-18T11:26:54.985Z,510
2017-02-18T11:28:05.773Z,520
2017-02-18T11:29:16.475Z,515
2017-02-18T11:30:27.181Z,510
2017-02-18T11:31:37.905Z,500
2017-02-18T11:32:48.631Z,485
2017-02-18T11:33:59.335Z,470
2017-02-18T11:35:10.040Z,465
2017-02-18T11:36:20.392Z,450
2017-02-18T11:37:31.102Z,450
2017-02-18T11:38:41.804Z,435
2017-02-18T11:39:52.504Z,420
2017-02-18T11:41:03.201Z,405
2017-02-18T11:42:13.573Z,400
2017-02-18T11:43:24.290Z,390
2017-02-18T11:44:34.597Z,390
2017-02-18T11:45:45.318Z,400
2017-02-18T11:46:56.031Z,425
2017-02-18T11:48:06.730Z,440
2017-02-18T11:49:17.078Z,445
2017-02-18T11:50:27.458Z,445
2017-02-18T11:51:37.777Z,450
2017-02-18T11:52:48.533Z,455
2017-02-18T11:53:59.297Z,440
2017-02-18T11:55:10.002Z,430
2017-02-18T11:56:20.319Z,425
2017-02-18T11:57:31.077Z,425
2017-02-18T11:58:41.781Z,410
2017-02-18T11:59:52.102Z,400
2017-02-18T12:01:02.440Z,395
2017-02-18T12:02:11.960Z,400
2017-02-18T12:03:22.670Z,410
2017-02-18T12:04:33.448Z,410
2017-02-18T12:05:44.150Z,400
2017-02-18T12:06:54.859Z,400
2017-02-18T12:08:05.603Z,405
2017-02-18T12:09:16.313Z,400
2017-02-18T12:10:26.641Z,395
2017-02-18T12:11:37.353Z,390
2017-02-18T12:12:47.676Z,390
2017-02-18T12:13:58.413Z,385
2017-02-18T12:15:09.129Z,385
2017-02-18T12:16:19.854Z,385
2017-02-18T12:17:30.549Z,385
2017-02-18T12:18:41.247Z,385
2017-02-18T12:19:51.557Z,390
2017-02-18T12:21:02.268Z,385
2017-02-18T12:22:12.985Z,380
2017-02-18T12:23:23.310Z,375
2017-02-18T12:24:34.021Z,370
2017-02-18T12:25:44.728Z,370
2017-02-18T12:26:55.427Z,365
2017-02-18T12:28:06.141Z,360
2017-02-18T12:29:16.453Z,360
2017-02-18T12:30:27.162Z,360
2017-02-18T12:31:37.862Z,360
2017-02-18T12:32:48.605Z,360
2017-02-18T12:33:59.339Z,370
2017-02-18T12:35:10.041Z,370
2017-02-18T12:36:20.352Z,375
2017-02-18T12:37:31.065Z,380
2017-02-18T12:38:41.776Z,385
2017-02-18T12:39:52.127Z,385
2017-02-18T12:41:02.444Z,385
2017-02-18T12:42:13.162Z,385
2017-02-18T12:43:23.872Z,385
2017-02-18T12:44:51.607Z,390
2017-02-18T12:46:02.309Z,400
2017-02-18T12:47:13.002Z,405
2017-02-18T12:48:23.310Z,410
2017-02-18T12:49:34.012Z,405
2017-02-18T12:50:44.731Z,400
2017-02-18T12:51:55.437Z,405
2017-02-18T12:53:06.219Z,395
2017-02-18T12:54:16.912Z,390
2017-02-18T12:55:27.619Z,395
2017-02-18T12:56:38.310Z,405
2017-02-18T12:57:49.033Z,415
2017-02-18T12:58:59.759Z,430
2017-02-18T13:00:10.131Z,425
2017-02-18T13:01:20.466Z,420
2017-02-18T13:02:31.183Z,415
2017-02-18T13:03:41.886Z,405
2017-02-18T13:04:52.189Z,400
2017-02-18T13:06:02.912Z,395
2017-02-18T13:07:13.224Z,400
2017-02-18T13:08:23.932Z,400
2017-02-18T13:09:34.645Z,400
2017-02-18T13:10:45.338Z,395
2017-02-18T13:11:55.659Z,380
2017-02-18T13:13:06.378Z,380
2017-02-18T13:14:17.076Z,370
2017-02-18T13:15:27.790Z,360
2017-02-18T13:16:38.104Z,350
2017-02-18T13:17:48.413Z,340
2017-02-18T13:18:59.126Z,330
2017-02-18T13:20:09.838Z,320
2017-02-18T13:21:20.156Z,310
2017-02-18T13:22:30.879Z,305
2017-02-18T13:23:41.576Z,295
2017-02-18T13:24:52.293Z,280
2017-02-18T13:26:02.593Z,275
2017-02-18T13:27:12.906Z,260
2017-02-18T13:28:23.607Z,250
2017-02-18T13:29:34.309Z,240
2017-02-18T13:30:45.023Z,235
2017-02-18T13:31:55.727Z,225
2017-02-18T13:33:06.034Z,220
2017-02-18T13:34:16.351Z,215
2017-02-18T13:35:27.065Z,215
2017-02-18T13:36:37.784Z,210
2017-02-18T13:37:48.496Z,210
2017-02-18T13:38:58.805Z,210
2017-02-18T13:40:09.126Z,205
2017-02-18T13:41:19.843Z,205
2017-02-18T13:42:30.553Z,200
2017-02-18T13:43:40.886Z,200
2017-02-18T13:44:51.202Z,195
2017-02-18T13:46:01.916Z,195
2017-02-18T13:47:12.244Z,190
2017-02-18T13:48:22.619Z,185
2017-02-18T13:49:33.320Z,190
2017-02-18T13:50:44.050Z,190
2017-02-18T13:51:54.753Z,195
2017-02-18T13:53:05.455Z,200
2017-02-18T13:54:16.173Z,205
2017-02-18T13:55:26.887Z,200
2017-02-18T13:56:37.204Z,200
2017-02-18T13:57:47.913Z,200
2017-02-18T13:58:58.606Z,195
2017-02-18T14:00:09.327Z,190
2017-02-18T14:01:20.045Z,180
2017-02-18T14:02:30.751Z,175
2017-02-18T14:03:41.456Z,170
2017-02-18T14:04:52.166Z,160
2017-02-18T14:06:02.878Z,155
2017-02-18T14:07:13.186Z,155
2017-02-18T14:08:23.517Z,155
2017-02-18T14:09:34.236Z,150
2017-02-18T14:10:44.952Z,150
2017-02-18T14:11:55.251Z,145
2017-02-18T14:13:05.951Z,145
2017-02-18T14:14:16.269Z,145
2017-02-18T14:15:26.987Z,140
2017-02-18T14:16:37.694Z,140
2017-02-18T14:17:48.392Z,135
2017-02-18T14:18:59.111Z,130
2017-02-18T14:20:09.845Z,125
2017-02-18T14:21:20.558Z,120
2017-02-18T14:22:31.292Z,115
2017-02-18T14:23:42.009Z,115
2017-02-18T14:24:52.727Z,110
2017-02-18T14:26:03.427Z,110
2017-02-18T14:27:13.738Z,110
2017-02-18T14:28:24.052Z,110
2017-02-18T14:29:34.744Z,115
2017-02-18T14:30:45.451Z,115
2017-02-18T14:31:55.750Z,120
2017-02-18T14:33:06.452Z,115
2017-02-18T14:34:16.755Z,115
2017-02-18T14:35:27.454Z,115
2017-02-18T14:36:38.157Z,110
2017-02-18T14:37:48.861Z,110
2017-02-18T14:38:59.566Z,105
2017-02-18T14:40:09.472Z,100
2017-02-18T14:41:19.377Z,95
2017-02-18T14:42:30.075Z,95
2017-02-18T14:43:40.784Z,90
2017-02-18T14:44:51.097Z,90
2017-02-18T14:46:01.010Z,90
2017-02-18T14:47:11.728Z,95
2017-02-18T14:48:22.020Z,95
2017-02-18T14:49:32.718Z,95
2017-02-18T14:50:43.419Z,95
2017-02-18T14:51:54.139Z,90
2017-02-18T14:53:04.453Z,90
2017-02-18T14:54:15.150Z,90
2017-02-18T14:55:25.867Z,85
2017-02-18T14:56:36.556Z,85
2017-02-18T14:57:47.268Z,80
2017-02-18T14:58:57.181Z,80
2017-02-18T15:00:07.970Z,75
2017-02-18T15:01:18.689Z,75
2017-02-18T15:02:29.000Z,75
2017-02-18T15:03:39.720Z,75
2017-02-18T15:04:50.433Z,75
2017-02-18T15:06:01.143Z,70
2017-02-18T15:07:11.457Z,70
2017-02-18T15:08:21.773Z,70
2017-02-18T15:09:32.479Z,70
2017-02-18T15:10:43.175Z,65
2017-02-18T15:11:53.876Z,65
2017-02-18T15:13:04.572Z,60
2017-02-18T15:14:14.886Z,60
2017-02-18T15:15:25.180Z,60
2017-02-18T15:16:35.897Z,55
2017-02-18T15:17:46.193Z,55
2017-02-18T15:18:56.909Z,55
2017-02-18T15:20:07.611Z,55
2017-02-18T15:21:17.515Z,50
2017-02-18T15:22:28.213Z,50
2017-02-18T15:23:38.150Z,50
2017-02-18T15:24:48.840Z,45
2017-02-18T15:25:59.546Z,45
2017-02-18T15:27:10.245Z,45
2017-02-18T15:28:20.951Z,40
2017-02-18T15:29:31.266Z,40
2017-02-18T15:30:41.959Z,40
2017-02-18T15:31:52.683Z,35
2017-02-18T15:33:02.996Z,35
2017-02-18T15:34:13.295Z,35
2017-02-18T15:35:23.612Z,30
2017-02-18T15:36:34.322Z,30
2017-02-18T15:37:45.035Z,30
2017-02-18T15:38:54.933Z,25
2017-02-18T15:40:05.232Z,25
2017-02-18T15:41:15.559Z,25
2017-02-18T15:42:26.262Z,25
2017-02-18T15:43:36.977Z,20
2017-02-18T15:44:47.710Z,20
2017-02-18T15:45:58.433Z,20
2017-02-18T15:47:09.131Z,20
2017-02-18T15:48:19.839Z,15
2017-02-18T15:49:30.149Z,15
2017-02-18T15:50:40.878Z,15
2017-02-18T15:51:51.575Z,10
2017-02-18T15:53:02.269Z,10
2017-02-18T15:54:12.987Z,10
2017-02-18T15:55:23.687Z,10
2017-02-18T15:56:34.390Z,10
2017-02-18T15:57:45.112Z,10
2017-02-18T15:58:55.828Z,10
2017-02-18T16:00:06.557Z,10
2017-02-18T16:01:17.254Z,10
2017-02-18T16:02:27.971Z,5
2017-02-18T16:03:38.293Z,5
2017-02-18T16:04:49.026Z,5
2017-02-18T16:05:59.339Z,5
2017-02-18T16:07:10.037Z,5
2017-02-18T16:08:20.770Z,5
2017-02-18T16:09:31.472Z,5
2017-02-18T16:10:41.785Z,5
2017-02-18T16:11:52.509Z,5
2017-02-18T16:13:02.819Z,5
2017-02-18T16:14:12.732Z,0
2017-02-18T16:15:22.641Z,0
2017-02-18T16:16:33.362Z,0
2017-02-18T16:17:44.060Z,0
2017-02-18T16:18:54.761Z,0
2017-02-18T16:20:05.469Z,0
2017-02-18T16:21:15.792Z,0
2017-02-18T16:22:26.504Z,0
2017-02-18T16:23:37.222Z,0
2017-02-18T16:24:47.953Z,0
2017-02-18T16:25:58.655Z,0
2017-02-18T16:27:09.371Z,0
2017-02-18T16:28:19.739Z,0
2017-02-18T16:29:30.434Z,0
2017-02-18T16:30:41.143Z,0
2017-02-18T16:31:51.850Z,0
2017-02-18T16:33:02.545Z,0
2017-02-18T16:34:13.241Z,0
2017-02-18T16:35:23.549Z,0
2017-02-18T16:36:34.260Z,0
2017-02-18T16:37:44.975Z,0
2017-02-18T16:38:55.688Z,0
2017-02-18T16:40:05.630Z,0
2017-02-18T16:41:15.560Z,0
2017-02-18T16:42:25.869Z,0
2017-02-18T16:43:36.251Z,0
2017-02-18T16:44:46.989Z,0
2017-02-18T16:45:57.685Z,0
2017-02-18T16:47:07.983Z,0
2017-02-18T16:48:18.695Z,0